Glencove, Washington
Current Conditions -  °F | °C
As of 5:28 PM on Friday 21 Nov 2014 (Local Time) from KTIW Reporting Station
Light Rain Light Rain  
Wind Chill: 46°   Ceiling: 800
Heat Index: 48°   Visibility: 1.5mi
Dew Point: 46°   Wind: 5mph
Humidity: 93%   Direction: NA
Pressure: 29.31"   Gusts: NA
Location:  47.2986°N, 122.616°W
Report Text: KTIW 220128Z VRB04KT 1 1/2SM -RA BR BKN008 BKN013 OVC019 09/08 A2931 RMK AO2 P0006 T00890078
Loading
Personal Weather Stations






























Interactive Weather Map New forecast layout! Learn more

10-Day Weather Forecast

Advertisements
Track Severe Weather on mobile